Terminal Aerodrome Forecast
Issued by NWS Sterling, VA

Home | Current Version | Previous Version | Text Only | Print | Product List | Glossary On
Versions: 1 2 3 4 5 6 7 8 9 10 11 12 13 14 15 16 17 18 19 20 21 22 23 24 25 26 27
586
FTUS41 KLWX 251501 AAA
TAFBWI
TAF AMD
KBWI 251501Z 2515/2618 VRB04KT 3SM -DZ BKN004 OVC015
     FM251700 18007KT P6SM BKN025
     FM252200 20008KT 3SM -SHRA VCTS BKN045CB
     FM260200 22005KT P6SM BKN045
     FM261400 29014G23KT P6SM BKN040=

USA.gov is the U.S. government's official web portal to all federal, state and local government web resources and services.